Main page
METAR-TAF:

METAR-TAF

Airports :

International Airport Irkutsk

Irkutsk, Russia

latitude: 52-16N, longitude: 104-19E, elevation: 513 m

Current weather observation

The report was made 33 minutes ago, at 11:00 UTC
Wind 6 kt from the North/Northwest
Temperature 18°C
Humidity 68%
Pressure 1017 hPa
Visibility 10 km or more
Scattered clouds at a height of 4000 ft, Cumulonimbus.

METAR: UIII 151100Z 34003MPS 9999 SCT040CB 18/12 Q1017 R30/60D NOSIG RMK QFE718/0957

Time: 19:33 (11:33 UTC)

Forecast

The report was made 3 hours and 33 minutes ago, at 08:00 UTC
Forecast valid from 15 at 09 UTC to 16 at 09 UTC
Wind 6 kt from the West/Northwest
Visibility 10 km or more
Broken clouds at a height of 1500 ft, Cumulonimbus.

TAF: UIII 150800Z 1509/1609 30003MPS 9999 BKN015CB

Weather observations and forecasts of more than 4000 airports (METAR and TAF reports).

The available stations are represented by yellow and red dots on the map.

Hover mouse over dot to see the name of the station.

Then click to see weather observations and forecasts.

To change the map : click on the green buttons with a black cross to zoom in, on the green button with a dash to zoom out, or on the green arrows for adjacent maps.


METAR-TAF: